HAM weather

Hamburg Airport
Hamburg, Hamburg, Germany

Public forecast

Using degrees Celsius for public forecast. Weather courtesy of forecast.io.

Current aviation weather report (METAR) for Hamburg Airport

Retrieved 2020/02/23 01:50 UTC (16 minutes ago):

EDDH 230150Z 26013G25KT 220V290 CAVOK 07/00 Q1012 TEMPO 26020G35KT

Aviation forecast (TAF) for Hamburg Airport

Retrieved 2020-02-23 00:27 UTC (2 hours ago):

TAF EDDH 222300Z 2300/2406 26015G25KT 9999 FEW030 PROB30 TEMPO 2300/2303 27020G35KT BECMG 2307/2309 26011KT BECMG 2309/2312 BKN012 PROB30 TEMPO 2312/2316 4000 RA BKN008 BECMG 2316/2318 28015G25KT PROB30 TEMPO 2318/2322 30020G35KT SHRA BKN015CB BECMG 2322/2402 25010KT